createdAt,value
2018-04-08T00:00:23.123Z,9.42
2018-04-08T00:01:23.021Z,9.40
2018-04-08T00:02:23.359Z,9.29
2018-04-08T00:03:23.050Z,9.32
2018-04-08T00:04:22.929Z,9.23
2018-04-08T00:05:22.918Z,9.19
2018-04-08T00:06:22.899Z,9.14
2018-04-08T00:07:22.954Z,9.16
2018-04-08T00:09:23.199Z,8.98
2018-04-08T00:10:22.892Z,8.99
2018-04-08T00:11:22.987Z,8.86
2018-04-08T00:12:23.151Z,8.81
2018-04-08T00:13:22.784Z,8.68
2018-04-08T00:14:22.771Z,8.67
2018-04-08T00:15:23.051Z,8.75
2018-04-08T00:16:22.735Z,8.70
2018-04-08T00:17:22.719Z,8.65
2018-04-08T00:18:22.806Z,8.70
2018-04-08T00:19:22.688Z,8.56
2018-04-08T00:20:22.666Z,8.60
2018-04-08T00:21:23.024Z,8.68
2018-04-08T00:22:22.781Z,8.78
2018-04-08T00:23:22.689Z,8.68
2018-04-08T00:24:23.051Z,8.81
2018-04-08T00:25:22.774Z,8.96
2018-04-08T00:26:22.618Z,8.83
2018-04-08T00:27:23.545Z,8.78
2018-04-08T00:28:23.330Z,8.81
2018-04-08T00:29:22.543Z,8.77
2018-04-08T00:30:22.560Z,8.81
2018-04-08T00:31:22.489Z,8.86
2018-04-08T00:32:22.474Z,8.93
2018-04-08T00:33:22.457Z,8.88
2018-04-08T00:34:22.736Z,8.90
2018-04-08T00:35:22.420Z,8.90
2018-04-08T00:36:22.453Z,8.88
2018-04-08T00:37:22.389Z,8.81
2018-04-08T00:38:22.372Z,8.85
2018-04-08T00:39:22.355Z,8.78
2018-04-08T00:40:22.343Z,8.78
2018-04-08T00:41:22.671Z,8.80
2018-04-08T00:42:22.306Z,8.68
2018-04-08T00:43:22.280Z,8.57
2018-04-08T00:44:22.715Z,8.60
2018-04-08T00:45:22.489Z,8.50
2018-04-08T00:46:22.247Z,8.49
2018-04-08T00:47:22.652Z,8.50
2018-04-08T00:48:22.657Z,8.49
2018-04-08T00:49:22.295Z,8.46
2018-04-08T00:50:22.175Z,8.46
2018-04-08T00:51:22.159Z,8.53
2018-04-08T00:52:22.139Z,8.53
2018-04-08T00:53:22.170Z,8.44
2018-04-08T00:54:22.153Z,8.39
2018-04-08T00:55:22.387Z,8.44
2018-04-08T00:56:22.370Z,8.44
2018-04-08T00:57:22.054Z,8.39
2018-04-08T00:58:22.110Z,8.35
2018-04-08T00:59:22.171Z,8.46
2018-04-08T01:00:22.202Z,8.35
2018-04-08T01:01:22.636Z,8.39
2018-04-08T01:02:22.270Z,8.29
2018-04-08T01:03:21.956Z,8.32
2018-04-08T01:04:21.938Z,8.46
2018-04-08T01:06:21.895Z,8.39
2018-04-08T01:07:21.882Z,8.31
2018-04-08T01:08:21.865Z,8.28
2018-04-08T01:09:22.294Z,8.28
2018-04-08T01:10:22.323Z,8.41
2018-04-08T01:11:22.164Z,8.38
2018-04-08T01:12:21.803Z,8.34
2018-04-08T01:13:22.124Z,8.38
2018-04-08T01:14:21.763Z,8.35
2018-04-08T01:15:21.859Z,8.42
2018-04-08T01:16:22.524Z,8.31
2018-04-08T01:17:21.809Z,8.42
2018-04-08T01:18:21.715Z,8.29
2018-04-08T01:19:21.681Z,8.17
2018-04-08T01:20:21.716Z,8.20
2018-04-08T01:21:21.754Z,8.19
2018-04-08T01:22:22.029Z,8.13
2018-04-08T01:23:21.745Z,8.06
2018-04-08T01:24:21.599Z,8.05
2018-04-08T01:25:21.681Z,8.04
2018-04-08T01:26:21.565Z,7.99
2018-04-08T01:27:21.548Z,7.87
2018-04-08T01:28:21.880Z,8.02
2018-04-08T01:29:21.515Z,8.04
2018-04-08T01:30:21.500Z,7.96
2018-04-08T01:31:21.535Z,7.94
2018-04-08T01:32:21.514Z,7.87
2018-04-08T01:33:21.498Z,7.86
2018-04-08T01:34:21.723Z,7.92
2018-04-08T01:36:21.493Z,7.83
2018-04-08T01:37:21.377Z,7.80
2018-04-08T01:38:21.460Z,7.78
2018-04-08T01:39:21.343Z,7.80
2018-04-08T01:40:21.623Z,7.78
2018-04-08T01:41:21.421Z,7.83
2018-04-08T01:42:21.468Z,7.84
2018-04-08T01:43:21.275Z,7.73
2018-04-08T01:44:21.758Z,7.74
2018-04-08T01:45:21.368Z,7.80
2018-04-08T01:46:21.569Z,7.87
2018-04-08T01:47:21.278Z,7.92
2018-04-08T01:48:21.579Z,7.87
2018-04-08T01:49:21.225Z,7.94
2018-04-08T01:50:21.210Z,7.99
2018-04-08T01:51:21.138Z,7.96
2018-04-08T01:52:21.420Z,7.98
2018-04-08T01:53:21.101Z,7.91
2018-04-08T01:54:21.134Z,7.86
2018-04-08T01:55:21.167Z,7.86
2018-04-08T01:56:21.127Z,7.83
2018-04-08T01:57:21.115Z,7.76
2018-04-08T01:58:21.314Z,7.84
2018-04-08T01:59:21.347Z,7.66
2018-04-08T02:00:20.982Z,7.66
2018-04-08T02:01:20.968Z,7.60
2018-04-08T02:02:20.959Z,7.57
2018-04-08T02:03:21.036Z,7.54
2018-04-08T02:04:20.911Z,7.61
2018-04-08T02:05:21.292Z,7.57
2018-04-08T02:06:20.978Z,7.54
2018-04-08T02:07:20.908Z,7.54
2018-04-08T02:08:20.895Z,7.52
2018-04-08T02:09:20.835Z,7.43
2018-04-08T02:10:20.819Z,7.43
2018-04-08T02:11:21.141Z,7.40
2018-04-08T02:12:21.074Z,7.34
2018-04-08T02:13:20.760Z,7.31
2018-04-08T02:14:20.754Z,7.37
2018-04-08T02:15:20.712Z,7.34
2018-04-08T02:16:20.753Z,7.39
2018-04-08T02:17:21.027Z,7.31
2018-04-08T02:18:21.273Z,7.29
2018-04-08T02:19:20.950Z,7.34
2018-04-08T02:20:20.688Z,7.34
2018-04-08T02:21:20.665Z,7.25
2018-04-08T02:22:20.648Z,7.10
2018-04-08T02:23:20.864Z,7.34
2018-04-08T02:24:20.866Z,7.29
2018-04-08T02:25:20.546Z,7.34
2018-04-08T02:26:20.899Z,7.36
2018-04-08T02:27:20.604Z,7.37
2018-04-08T02:28:20.603Z,7.33
2018-04-08T02:29:20.927Z,7.31
2018-04-08T02:30:20.463Z,7.28
2018-04-08T02:31:20.439Z,7.28
2018-04-08T02:32:20.432Z,7.28
2018-04-08T02:33:20.703Z,7.13
2018-04-08T02:34:20.386Z,7.19
2018-04-08T02:35:20.473Z,7.16
2018-04-08T02:36:20.399Z,7.15
2018-04-08T02:37:20.325Z,7.00
2018-04-08T02:38:20.676Z,7.03
2018-04-08T02:39:20.652Z,7.04
2018-04-08T02:40:20.627Z,6.99
2018-04-08T02:41:20.269Z,7.03
2018-04-08T02:42:20.349Z,6.97
2018-04-08T02:43:20.321Z,7.03
2018-04-08T02:44:20.205Z,7.06
2018-04-08T02:45:20.400Z,7.08
2018-04-08T02:46:20.166Z,7.11
2018-04-08T02:47:20.515Z,7.19
2018-04-08T02:48:20.340Z,7.13
2018-04-08T02:50:20.203Z,7.19
2018-04-08T02:51:20.082Z,7.15
2018-04-08T02:52:20.056Z,7.18
2018-04-08T02:53:20.396Z,7.31
2018-04-08T02:54:20.029Z,7.29
2018-04-08T02:55:20.108Z,7.31
2018-04-08T02:56:20.099Z,7.29
2018-04-08T02:57:20.071Z,7.28
2018-04-08T02:58:20.051Z,7.29
2018-04-08T02:59:20.336Z,7.22
2018-04-08T03:00:20.020Z,7.18
2018-04-08T03:01:19.909Z,7.16
2018-04-08T03:02:19.981Z,7.04
2018-04-08T03:03:19.864Z,7.01
2018-04-08T03:04:19.853Z,7.04
2018-04-08T03:05:20.144Z,7.00
2018-04-08T03:06:19.814Z,7.03
2018-04-08T03:07:19.856Z,7.03
2018-04-08T03:08:19.829Z,7.16
2018-04-08T03:09:19.757Z,7.16
2018-04-08T03:11:20.016Z,7.11
2018-04-08T03:12:19.694Z,7.15
2018-04-08T03:13:19.835Z,7.10
2018-04-08T03:14:19.788Z,7.01
2018-04-08T03:15:19.721Z,7.01
2018-04-08T03:16:19.840Z,6.97
2018-04-08T03:17:19.971Z,6.89
2018-04-08T03:18:19.664Z,6.92
2018-04-08T03:19:19.620Z,6.88
2018-04-08T03:20:19.552Z,6.93
2018-04-08T03:21:19.543Z,6.91
2018-04-08T03:22:19.520Z,6.89
2018-04-08T03:23:19.922Z,6.89
2018-04-08T03:24:19.583Z,6.91
2018-04-08T03:25:19.567Z,6.88
2018-04-08T03:26:19.573Z,6.89
2018-04-08T03:27:19.449Z,6.92
2018-04-08T03:28:19.707Z,6.79
2018-04-08T03:29:19.405Z,6.79
2018-04-08T03:30:20.020Z,6.71
2018-04-08T03:31:19.358Z,6.71
2018-04-08T03:32:19.340Z,6.78
2018-04-08T03:33:19.321Z,6.71
2018-04-08T03:34:19.309Z,6.74
2018-04-08T03:35:19.284Z,6.68
2018-04-08T03:36:19.320Z,6.63
2018-04-08T03:37:19.547Z,6.67
2018-04-08T03:38:19.232Z,6.63
2018-04-08T03:39:19.213Z,6.63
2018-04-08T03:40:19.194Z,6.47
2018-04-08T03:41:19.225Z,6.53
2018-04-08T03:42:19.163Z,6.45
2018-04-08T03:43:19.172Z,6.45
2018-04-08T03:44:19.421Z,6.43
2018-04-08T03:45:19.103Z,6.40
2018-04-08T03:46:19.086Z,6.40
2018-04-08T03:47:19.123Z,6.37
2018-04-08T03:48:19.046Z,6.31
2018-04-08T03:49:19.032Z,6.31
2018-04-08T03:50:19.010Z,6.19
2018-04-08T03:51:19.293Z,6.24
2018-04-08T03:52:18.971Z,6.25
2018-04-08T03:53:19.056Z,6.19
2018-04-08T03:54:18.936Z,6.16
2018-04-08T03:55:18.918Z,6.15
2018-04-08T03:56:18.917Z,6.19
2018-04-08T03:57:18.980Z,6.19
2018-04-08T03:58:19.164Z,6.15
2018-04-08T03:59:18.897Z,6.27
2018-04-08T04:00:18.828Z,6.18
2018-04-08T04:01:18.810Z,6.12
2018-04-08T04:02:18.792Z,6.12
2018-04-08T04:03:18.809Z,6.09
2018-04-08T04:04:18.756Z,6.13
2018-04-08T04:05:19.091Z,6.12
2018-04-08T04:06:18.716Z,6.15
2018-04-08T04:07:18.703Z,6.13
2018-04-08T04:08:18.680Z,6.08
2018-04-08T04:09:18.665Z,6.05
2018-04-08T04:10:18.647Z,6.05
2018-04-08T04:11:18.695Z,6.08
2018-04-08T04:12:18.906Z,6.05
2018-04-08T04:13:18.587Z,6.08
2018-04-08T04:14:18.572Z,6.05
2018-04-08T04:15:18.600Z,6.05
2018-04-08T04:16:18.531Z,6.06
2018-04-08T04:17:18.612Z,6.02
2018-04-08T04:18:18.801Z,6.09
2018-04-08T04:19:18.492Z,6.11
2018-04-08T04:20:18.507Z,6.15
2018-04-08T04:21:18.496Z,6.25
2018-04-08T04:22:18.421Z,6.15
2018-04-08T04:23:18.407Z,6.12
2018-04-08T04:24:18.690Z,6.11
2018-04-08T04:26:18.345Z,6.05
2018-04-08T04:27:18.348Z,6.08
2018-04-08T04:28:18.307Z,6.03
2018-04-08T04:29:18.290Z,6.08
2018-04-08T04:30:18.576Z,5.98
2018-04-08T04:31:18.403Z,5.94
2018-04-08T04:32:18.436Z,5.97
2018-04-08T04:33:18.207Z,5.98
2018-04-08T04:34:18.188Z,5.94
2018-04-08T04:35:18.182Z,5.98
2018-04-08T04:36:18.811Z,5.98
2018-04-08T04:37:18.140Z,5.90
2018-04-08T04:38:18.127Z,5.93
2018-04-08T04:39:18.139Z,5.88
2018-04-08T04:40:18.085Z,5.90
2018-04-08T04:41:18.066Z,5.93
2018-04-08T04:42:18.452Z,5.80
2018-04-08T04:43:18.032Z,5.90
2018-04-08T04:44:18.011Z,5.76
2018-04-08T04:45:18.045Z,5.76
2018-04-08T04:46:23.242Z,5.80
2018-04-08T04:47:17.954Z,5.80
2018-04-08T04:48:18.290Z,5.79
2018-04-08T04:49:17.996Z,5.76
2018-04-08T04:50:17.903Z,5.87
2018-04-08T04:51:17.935Z,5.80
2018-04-08T04:52:17.858Z,5.90
2018-04-08T04:53:17.892Z,5.88
2018-04-08T04:54:18.171Z,5.91
2018-04-08T04:55:17.804Z,5.84
2018-04-08T04:56:17.781Z,5.84
2018-04-08T04:57:17.768Z,5.88
2018-04-08T04:58:17.747Z,5.90
2018-04-08T04:59:17.830Z,5.88
2018-04-08T05:00:17.705Z,5.84
2018-04-08T05:01:17.987Z,5.97
2018-04-08T05:02:17.670Z,5.95
2018-04-08T05:03:17.761Z,5.97
2018-04-08T05:04:17.684Z,5.94
2018-04-08T05:05:17.715Z,6.11
2018-04-08T05:06:17.701Z,6.09
2018-04-08T05:07:17.575Z,6.08
2018-04-08T05:08:17.952Z,6.16
2018-04-08T05:09:17.638Z,6.13
2018-04-08T05:10:17.620Z,6.12
2018-04-08T05:11:17.655Z,6.09
2018-04-08T05:12:17.654Z,6.13
2018-04-08T05:13:17.463Z,6.13
2018-04-08T05:14:17.834Z,6.16
2018-04-08T05:15:17.756Z,6.13
2018-04-08T05:16:18.134Z,6.21
2018-04-08T05:17:17.391Z,6.16
2018-04-08T05:18:18.002Z,6.24
2018-04-08T05:20:17.407Z,6.25
2018-04-08T05:21:17.323Z,6.27
2018-04-08T05:23:17.581Z,6.35
2018-04-08T05:24:17.307Z,6.35
2018-04-08T05:25:17.549Z,6.42
2018-04-08T05:26:17.216Z,6.47
2018-04-08T05:27:17.378Z,6.43
2018-04-08T05:28:17.438Z,6.40
2018-04-08T05:29:17.226Z,6.38
2018-04-08T05:30:17.755Z,6.47
2018-04-08T05:31:17.133Z,6.53
2018-04-08T05:32:17.133Z,6.49
2018-04-08T05:33:17.092Z,6.52
2018-04-08T05:34:17.078Z,6.63
2018-04-08T05:35:17.047Z,6.61
2018-04-08T05:36:17.374Z,6.60
2018-04-08T05:37:17.307Z,6.63
2018-04-08T05:38:17.000Z,6.71
2018-04-08T05:39:16.997Z,6.63
2018-04-08T05:40:17.004Z,6.65
2018-04-08T05:41:16.945Z,6.75
2018-04-08T05:42:16.989Z,6.81
2018-04-08T05:43:17.209Z,6.83
2018-04-08T05:44:16.884Z,6.71
2018-04-08T05:45:16.924Z,6.75
2018-04-08T05:46:16.870Z,6.82
2018-04-08T05:47:16.879Z,7.01
2018-04-08T05:48:16.958Z,7.01
2018-04-08T05:49:17.270Z,7.13
2018-04-08T05:50:16.768Z,7.24
2018-04-08T05:51:16.748Z,7.19
2018-04-08T05:52:16.735Z,7.33
2018-04-08T05:53:16.771Z,7.57
2018-04-08T05:54:16.859Z,7.54
2018-04-08T05:55:16.996Z,7.69
2018-04-08T05:56:16.677Z,7.76
2018-04-08T05:57:16.708Z,7.80
2018-04-08T05:58:16.640Z,7.94
2018-04-08T05:59:16.616Z,8.04
2018-04-08T06:00:16.811Z,8.23
2018-04-08T06:01:16.999Z,8.28
2018-04-08T06:02:22.847Z,8.37
2018-04-08T06:03:16.557Z,8.37
2018-04-08T06:04:16.604Z,8.50
2018-04-08T06:05:16.555Z,8.52
2018-04-08T06:06:16.573Z,8.65
2018-04-08T06:07:17.467Z,8.71
2018-04-08T06:08:16.456Z,8.83
2018-04-08T06:09:16.703Z,8.80
2018-04-08T06:10:16.486Z,8.92
2018-04-08T06:11:16.555Z,8.89
2018-04-08T06:12:16.380Z,8.98
2018-04-08T06:13:16.765Z,9.08
2018-04-08T06:14:16.646Z,9.15
2018-04-08T06:15:16.346Z,9.14
2018-04-08T06:16:16.325Z,9.32
2018-04-08T06:17:16.403Z,9.37
2018-04-08T06:18:16.286Z,9.47
2018-04-08T06:19:16.569Z,9.50
2018-04-08T06:20:16.308Z,9.55
2018-04-08T06:21:16.235Z,9.59
2018-04-08T06:22:16.219Z,9.63
2018-04-08T06:23:16.263Z,9.75
2018-04-08T06:24:16.189Z,9.69
2018-04-08T06:25:16.165Z,9.83
2018-04-08T06:26:16.444Z,9.85
2018-04-08T06:27:16.141Z,9.87
2018-04-08T06:28:16.166Z,9.91
2018-04-08T06:29:16.155Z,10.06
2018-04-08T06:32:16.160Z,10.26
2018-04-08T06:33:16.747Z,10.35
2018-04-08T06:35:16.103Z,10.58
2018-04-08T06:36:16.048Z,10.73
2018-04-08T06:38:15.967Z,10.80
2018-04-08T06:39:16.565Z,10.79
2018-04-08T06:40:16.397Z,10.86
2018-04-08T06:41:15.910Z,10.97
2018-04-08T06:42:15.876Z,11.05
2018-04-08T06:43:15.860Z,11.13
2018-04-08T06:44:15.845Z,11.18
2018-04-08T06:45:16.182Z,11.25
2018-04-08T06:46:15.816Z,11.33
2018-04-08T06:47:16.097Z,11.45
2018-04-08T06:48:15.779Z,11.43
2018-04-08T06:49:15.817Z,11.49
2018-04-08T06:50:15.756Z,11.62
2018-04-08T06:51:15.894Z,11.73
2018-04-08T06:52:15.719Z,11.74
2018-04-08T06:53:15.703Z,11.82
2018-04-08T06:54:15.988Z,11.95
2018-04-08T06:55:15.675Z,12.03
2018-04-08T06:56:15.761Z,11.99
2018-04-08T06:57:15.745Z,12.15
2018-04-08T06:58:15.713Z,12.21
2018-04-08T06:59:15.701Z,12.35
2018-04-08T07:00:16.009Z,12.36
2018-04-08T07:01:16.292Z,12.40
2018-04-08T07:02:15.973Z,12.55
2018-04-08T07:03:16.052Z,12.51
2018-04-08T07:04:15.924Z,12.62
2018-04-08T07:06:15.524Z,12.77
2018-04-08T07:07:15.882Z,12.91
2018-04-08T07:08:16.633Z,12.91
2018-04-08T07:09:15.656Z,13.04
2018-04-08T07:10:15.900Z,13.11
2018-04-08T07:12:16.075Z,13.42
2018-04-08T07:13:15.807Z,13.46
2018-04-08T07:14:16.292Z,13.55
2018-04-08T07:15:15.780Z,13.64
2018-04-08T07:16:16.301Z,13.76
2018-04-08T07:17:16.140Z,13.83
2018-04-08T07:18:15.352Z,13.86
2018-04-08T07:19:15.351Z,14.03
2018-04-08T07:20:15.620Z,14.16
2018-04-08T07:21:15.308Z,14.30
2018-04-08T07:22:15.290Z,14.34
2018-04-08T07:23:15.375Z,14.48
2018-04-08T07:24:15.277Z,14.51
2018-04-08T07:25:15.419Z,14.58
2018-04-08T07:26:16.008Z,14.74
2018-04-08T07:27:15.400Z,14.93
2018-04-08T07:28:15.204Z,15.48
2018-04-08T07:29:15.249Z,16.29
2018-04-08T07:30:15.180Z,17.13
2018-04-08T07:31:15.709Z,17.62
2018-04-08T07:32:15.653Z,17.83
2018-04-08T07:33:15.816Z,18.26
2018-04-08T07:34:15.205Z,18.57
2018-04-08T07:35:15.272Z,18.88
2018-04-08T07:36:15.203Z,19.30
2018-04-08T07:37:15.168Z,19.50
2018-04-08T07:38:15.375Z,19.59
2018-04-08T07:39:15.120Z,19.67
2018-04-08T07:40:15.103Z,19.78
2018-04-08T07:41:15.039Z,20.02
2018-04-08T07:42:15.116Z,20.39
2018-04-08T07:43:15.037Z,20.11
2018-04-08T07:45:15.379Z,20.46
2018-04-08T07:46:15.365Z,20.48
2018-04-08T07:47:15.023Z,20.67
2018-04-08T07:49:15.024Z,20.75
2018-04-08T07:50:15.299Z,20.71
2018-04-08T07:51:14.994Z,20.34
2018-04-08T07:52:14.919Z,20.64
2018-04-08T07:53:15.127Z,20.60
2018-04-08T07:54:15.061Z,21.04
2018-04-08T07:55:14.989Z,21.00
2018-04-08T07:56:14.880Z,21.20
2018-04-08T07:57:15.171Z,21.28
2018-04-08T07:58:14.862Z,21.59
2018-04-08T07:59:14.987Z,21.37
2018-04-08T08:00:15.223Z,21.58
2018-04-08T08:01:16.018Z,21.60
2018-04-08T08:02:15.819Z,21.77
2018-04-08T08:04:15.242Z,21.80
2018-04-08T08:06:14.900Z,21.58
2018-04-08T08:07:15.454Z,21.65
2018-04-08T08:12:15.164Z,22.81
2018-04-08T08:13:15.058Z,22.53
2018-04-08T08:14:14.795Z,22.52
2018-04-08T08:15:15.004Z,22.61
2018-04-08T08:16:14.824Z,22.38
2018-04-08T08:17:14.826Z,22.55
2018-04-08T08:19:15.063Z,22.71
2018-04-08T08:20:14.736Z,22.67
2018-04-08T08:22:59.639Z,22.56
2018-04-08T08:23:59.457Z,22.76
2018-04-08T08:24:59.528Z,23.22
2018-04-08T08:25:59.438Z,23.13
2018-04-08T08:26:59.437Z,23.56
2018-04-08T08:27:59.731Z,23.69
2018-04-08T08:28:59.467Z,24.13
2018-04-08T08:29:59.398Z,24.53
2018-04-08T08:30:59.455Z,24.37
2018-04-08T08:31:59.399Z,24.37
2018-04-08T08:32:59.558Z,24.36
2018-04-08T08:33:59.521Z,24.51
2018-04-08T08:34:59.431Z,24.45
2018-04-08T08:35:59.372Z,24.60
2018-04-08T08:36:59.499Z,24.65
2018-04-08T08:37:59.354Z,24.81
2018-04-08T08:38:59.343Z,24.47
2018-04-08T08:39:59.361Z,24.38
2018-04-08T08:40:59.853Z,24.36
2018-04-08T08:41:59.633Z,24.01
2018-04-08T08:42:59.324Z,24.22
2018-04-08T08:43:59.318Z,24.36
2018-04-08T08:44:59.678Z,23.66
2018-04-08T08:45:59.304Z,22.98
2018-04-08T08:46:59.504Z,23.64
2018-04-08T08:47:59.299Z,24.34
2018-04-08T08:48:59.302Z,24.59
2018-04-08T08:49:59.308Z,24.55
2018-04-08T08:50:59.574Z,24.38
2018-04-08T08:51:59.273Z,24.04
2018-04-08T08:52:59.430Z,24.59
2018-04-08T08:53:59.274Z,25.16
2018-04-08T08:54:59.405Z,24.96
2018-04-08T08:55:59.980Z,24.33
2018-04-08T08:56:59.268Z,24.43
2018-04-08T08:57:59.344Z,24.84
2018-04-08T08:58:59.289Z,25.15
2018-04-08T08:59:59.225Z,25.33
2018-04-08T09:00:59.224Z,25.00
2018-04-08T09:01:59.224Z,23.94
2018-04-08T09:02:59.222Z,24.48
2018-04-08T09:03:59.307Z,24.29
2018-04-08T09:04:59.262Z,24.00
2018-04-08T09:05:59.266Z,23.97
2018-04-08T09:06:59.281Z,24.75
2018-04-08T09:07:59.210Z,24.74
2018-04-08T09:08:59.206Z,25.16
2018-04-08T09:09:59.255Z,24.89
2018-04-08T09:10:59.238Z,24.85
2018-04-08T09:11:59.942Z,24.94
2018-04-08T09:12:59.190Z,24.94
2018-04-08T09:13:59.583Z,25.31
2018-04-08T09:14:59.184Z,25.38
2018-04-08T09:15:59.318Z,25.41
2018-04-08T09:16:59.234Z,25.33
2018-04-08T09:17:59.164Z,24.68
2018-04-08T09:18:59.259Z,24.65
2018-04-08T09:19:59.531Z,25.26
2018-04-08T09:20:59.210Z,25.06
2018-04-08T09:21:59.395Z,24.59
2018-04-08T09:22:59.522Z,24.81
2018-04-08T09:23:59.260Z,24.74
2018-04-08T09:24:59.263Z,24.65
2018-04-08T09:25:59.145Z,24.29
2018-04-08T09:27:59.219Z,24.62
2018-04-08T09:28:59.178Z,24.71
2018-04-08T09:29:59.128Z,24.38
2018-04-08T09:30:59.123Z,23.79
2018-04-08T09:31:59.440Z,24.16
2018-04-08T09:32:59.122Z,23.82
2018-04-08T09:33:59.170Z,24.26
2018-04-08T09:34:59.173Z,24.04
2018-04-08T09:35:59.111Z,24.19
2018-04-08T09:36:59.108Z,23.81
2018-04-08T09:37:59.418Z,23.60
2018-04-08T09:38:59.113Z,23.82
2018-04-08T09:39:59.101Z,23.44
2018-04-08T09:40:59.155Z,23.64
2018-04-08T09:41:59.099Z,23.60
2018-04-08T09:42:59.095Z,23.92
2018-04-08T09:43:59.460Z,24.62
2018-04-08T09:44:59.215Z,24.59
2018-04-08T09:45:59.080Z,24.60
2018-04-08T09:46:59.282Z,25.16
2018-04-08T09:47:59.082Z,25.23
2018-04-08T09:48:59.092Z,24.58
2018-04-08T09:49:59.382Z,25.22
2018-04-08T09:50:59.085Z,25.64
2018-04-08T09:51:59.113Z,25.66
2018-04-08T09:52:59.115Z,25.75
2018-04-08T09:53:59.267Z,26.36
2018-04-08T09:54:59.109Z,26.82
2018-04-08T09:55:59.379Z,26.80
2018-04-08T09:56:59.062Z,26.43
2018-04-08T09:57:59.063Z,26.43
2018-04-08T09:58:59.113Z,26.65
2018-04-08T09:59:59.070Z,26.52
2018-04-08T10:00:59.069Z,26.90
2018-04-08T10:01:59.085Z,26.78
2018-04-08T10:02:59.301Z,26.94
2018-04-08T10:03:59.086Z,26.67
2018-04-08T10:04:59.200Z,26.24
2018-04-08T10:05:59.411Z,26.28
2018-04-08T10:06:59.097Z,26.04
2018-04-08T10:07:59.373Z,25.98
2018-04-08T10:08:59.074Z,26.52
2018-04-08T10:09:59.047Z,27.03
2018-04-08T10:10:59.194Z,27.15
2018-04-08T10:11:59.851Z,27.44
2018-04-08T10:12:59.050Z,27.38
2018-04-08T10:13:59.363Z,27.26
2018-04-08T10:14:59.055Z,27.66
2018-04-08T10:15:59.061Z,27.68
2018-04-08T10:16:59.198Z,27.27
2018-04-08T10:17:59.048Z,27.44
2018-04-08T10:19:00.975Z,27.72
2018-04-08T10:19:59.038Z,26.36
2018-04-08T10:20:59.034Z,26.45
2018-04-08T10:21:59.058Z,26.97
2018-04-08T10:22:59.173Z,27.26
2018-04-08T10:23:59.039Z,27.25
2018-04-08T10:24:59.344Z,26.79
2018-04-08T10:25:59.229Z,26.71
2018-04-08T10:26:59.140Z,26.53
2018-04-08T10:27:59.042Z,26.07
2018-04-08T10:28:59.167Z,26.03
2018-04-08T10:29:59.056Z,26.67
2018-04-08T10:30:59.341Z,27.13
2018-04-08T10:31:59.069Z,27.22
2018-04-08T10:32:59.050Z,27.17
2018-04-08T10:33:59.088Z,27.78
2018-04-08T10:34:59.125Z,28.27
2018-04-08T10:35:59.054Z,28.32
2018-04-08T10:36:59.352Z,28.53
2018-04-08T10:37:59.157Z,28.47
2018-04-08T10:38:59.182Z,27.23
2018-04-08T10:39:59.093Z,27.58
2018-04-08T10:40:59.158Z,27.73
2018-04-08T10:41:59.112Z,27.32
2018-04-08T10:42:59.417Z,27.37
2018-04-08T10:43:59.062Z,26.89
2018-04-08T10:44:59.072Z,26.93
2018-04-08T10:45:59.120Z,26.90
2018-04-08T10:46:59.119Z,26.21
2018-04-08T10:47:59.065Z,26.24
2018-04-08T10:48:59.358Z,26.89
2018-04-08T10:49:59.055Z,26.75
2018-04-08T10:50:59.102Z,26.97
2018-04-08T10:51:59.064Z,27.08
2018-04-08T10:52:59.114Z,27.41
2018-04-08T10:53:59.088Z,27.87
2018-04-08T10:54:59.389Z,28.19
2018-04-08T10:55:59.069Z,28.35
2018-04-08T10:56:59.078Z,28.06
2018-04-08T10:57:59.085Z,27.00
2018-04-08T10:58:59.131Z,27.16
2018-04-08T10:59:59.097Z,27.04
2018-04-08T11:00:59.395Z,28.00
2018-04-08T11:01:59.084Z,27.72
2018-04-08T11:02:59.130Z,27.98
2018-04-08T11:03:59.081Z,28.44
2018-04-08T11:04:59.258Z,28.79
2018-04-08T11:05:59.156Z,28.65
2018-04-08T11:06:59.395Z,29.09
2018-04-08T11:07:59.094Z,28.65
2018-04-08T11:10:59.147Z,29.07
2018-04-08T11:11:59.087Z,29.39
2018-04-08T11:12:59.412Z,29.65
2018-04-08T11:13:59.249Z,29.89
2018-04-08T11:14:59.096Z,29.81
2018-04-08T11:15:59.101Z,29.24
2018-04-08T11:16:59.276Z,28.24
2018-04-08T11:17:59.248Z,28.17
2018-04-08T11:18:59.410Z,28.91
2018-04-08T11:19:59.116Z,28.96
2018-04-08T11:20:59.126Z,29.37
2018-04-08T11:21:59.313Z,29.65
2018-04-08T11:22:59.374Z,29.89
2018-04-08T11:23:59.123Z,29.70
2018-04-08T11:24:59.432Z,29.70
2018-04-08T11:25:59.227Z,30.18
2018-04-08T11:26:59.142Z,29.76
2018-04-08T11:27:59.204Z,29.50
2018-04-08T11:28:59.207Z,29.52
2018-04-08T11:29:59.132Z,28.44
2018-04-08T11:30:59.444Z,28.13
2018-04-08T11:31:59.162Z,28.19
2018-04-08T11:32:59.218Z,28.20
2018-04-08T11:33:59.173Z,28.69
2018-04-08T11:34:59.333Z,28.62
2018-04-08T11:35:59.183Z,28.64
2018-04-08T11:36:59.266Z,28.72
2018-04-08T11:37:59.202Z,28.22
2018-04-08T11:38:59.281Z,28.49
2018-04-08T11:39:59.219Z,28.30
2018-04-08T11:40:59.515Z,28.50
2018-04-08T11:42:00.079Z,28.77
2018-04-08T11:42:59.476Z,28.22
2018-04-08T11:43:59.180Z,28.19
2018-04-08T11:44:59.185Z,27.47
2018-04-08T11:45:59.267Z,27.78
2018-04-08T11:46:59.238Z,27.70
2018-04-08T11:47:59.227Z,28.16
2018-04-08T11:48:59.492Z,29.37
2018-04-08T11:49:59.206Z,29.52
2018-04-08T11:50:59.203Z,28.20
2018-04-08T11:51:59.193Z,28.13
2018-04-08T11:52:59.246Z,27.68
2018-04-08T11:53:59.978Z,27.25
2018-04-08T11:54:59.509Z,27.41
2018-04-08T11:55:59.207Z,27.23
2018-04-08T11:56:59.225Z,27.17
2018-04-08T11:57:59.254Z,28.07
2018-04-08T11:58:59.263Z,28.12
2018-04-08T11:59:59.324Z,28.31
2018-04-08T12:00:59.518Z,28.91
2018-04-08T12:01:59.273Z,28.83
2018-04-08T12:02:59.274Z,29.18
2018-04-08T12:03:59.233Z,29.28
2018-04-08T12:05:59.284Z,27.87
2018-04-08T12:06:59.343Z,27.94
2018-04-08T12:07:59.266Z,28.19
2018-04-08T12:08:59.295Z,27.03
2018-04-08T12:09:59.254Z,26.83
2018-04-08T12:10:59.255Z,27.52
2018-04-08T12:11:59.350Z,28.12
2018-04-08T12:12:59.564Z,28.37
2018-04-08T12:14:59.296Z,28.30
2018-04-08T12:15:59.403Z,27.22
2018-04-08T12:16:59.259Z,27.04
2018-04-08T12:17:59.330Z,27.34
2018-04-08T12:18:59.562Z,28.09
2018-04-08T12:19:59.266Z,28.74
2018-04-08T12:20:59.274Z,29.02
2018-04-08T12:21:59.264Z,29.37
2018-04-08T12:22:59.334Z,29.04
2018-04-08T12:23:59.572Z,28.54
2018-04-08T12:24:59.571Z,27.97
2018-04-08T12:25:59.287Z,28.43
2018-04-08T12:27:59.297Z,29.34
2018-04-08T12:28:59.294Z,28.66
2018-04-08T12:29:59.501Z,29.03
2018-04-08T12:30:59.608Z,29.28
2018-04-08T12:31:59.297Z,29.43
2018-04-08T12:32:59.300Z,29.62
2018-04-08T12:33:59.493Z,29.58
2018-04-08T12:34:59.339Z,29.04
2018-04-08T12:36:59.704Z,27.87
2018-04-08T12:37:59.444Z,28.19
2018-04-08T12:38:59.309Z,28.25
2018-04-08T12:39:59.336Z,28.77
2018-04-08T12:40:59.338Z,29.13
2018-04-08T12:41:59.384Z,29.02
2018-04-08T12:42:59.697Z,28.89
2018-04-08T12:43:59.372Z,28.71
2018-04-08T12:44:59.321Z,28.74
2018-04-08T12:45:59.382Z,28.31
2018-04-08T12:46:59.347Z,27.69
2018-04-08T12:47:59.527Z,27.73
2018-04-08T12:48:59.429Z,28.42
2018-04-08T12:50:59.405Z,28.69
2018-04-08T12:51:59.708Z,29.27
2018-04-08T12:52:59.941Z,29.40
2018-04-08T12:53:59.358Z,29.73
2018-04-08T12:54:59.706Z,30.08
2018-04-08T12:55:59.351Z,28.72
2018-04-08T12:56:59.357Z,29.31
2018-04-08T12:57:59.363Z,29.68
2018-04-08T12:58:59.365Z,29.91
2018-04-08T12:59:59.370Z,29.70
2018-04-08T13:00:59.732Z,29.31
2018-04-08T13:01:59.621Z,29.58
2018-04-08T13:02:59.379Z,29.36
2018-04-08T13:03:59.381Z,29.68
2018-04-08T13:05:59.868Z,28.50
2018-04-08T13:06:59.845Z,27.64
2018-04-08T13:07:59.382Z,27.72
2018-04-08T13:08:59.403Z,27.19
2018-04-08T13:09:59.414Z,26.31
2018-04-08T13:10:59.407Z,26.89
2018-04-08T13:11:59.399Z,27.53
2018-04-08T13:12:59.751Z,27.20
2018-04-08T13:13:59.411Z,27.32
2018-04-08T13:14:59.584Z,28.30
2018-04-08T13:15:59.407Z,27.73
2018-04-08T13:16:59.424Z,28.30
2018-04-08T13:18:59.894Z,29.44
2018-04-08T13:19:59.408Z,29.44
2018-04-08T13:20:59.408Z,29.81
2018-04-08T13:21:59.482Z,29.80
2018-04-08T13:22:59.423Z,30.17
2018-04-08T13:23:59.427Z,29.84
2018-04-08T13:24:59.835Z,29.55
2018-04-08T13:25:59.526Z,28.72
2018-04-08T13:26:59.441Z,28.77
2018-04-08T13:27:59.538Z,29.12
2018-04-08T13:30:59.818Z,29.10
2018-04-08T13:31:59.448Z,29.44
2018-04-08T13:32:59.447Z,30.03
2018-04-08T13:33:59.471Z,30.53
2018-04-08T13:34:59.511Z,30.00
2018-04-08T13:35:59.460Z,29.13
2018-04-08T13:36:59.944Z,28.52
2018-04-08T13:37:59.488Z,28.17
2018-04-08T13:38:59.468Z,28.59
2018-04-08T13:39:59.478Z,28.54
2018-04-08T13:40:59.774Z,28.89